Time;durP1;ratioP1;P1;durP2;ratioP2;P2;SDS_P1;SDS_P2;PMS_P1;PMS_P2;Temp;Humidity;BMP_temperature;BMP_pressure;BME280_temperature;BME280_humidity;BME280_pressure;Samples;Min_cycle;Max_cycle;Signal;HPM_P1;HPM_P2
2022/03/07 00:02:43;;;;;;;6.43;5.83;;;4.40;25.80;;;;;;10353700;28;20235;-76
2022/03/07 00:07:47;;;;;;;6.67;6.07;;;4.40;26.00;;;;;;10342189;28;20278;-76
2022/03/07 00:12:50;;;;;;;7.47;6.77;;;4.50;26.00;;;;;;10346867;28;20731;-75
2022/03/07 00:17:54;;;;;;;6.53;6.03;;;4.40;26.00;;;;;;10354953;28;20236;-76
2022/03/07 00:22:58;;;;;;;6.90;6.30;;;4.30;26.00;;;;;;10349882;28;20233;-75
2022/03/07 00:28:01;;;;;;;7.57;6.87;;;4.30;26.00;;;;;;10355079;28;20246;-75
2022/03/07 00:33:05;;;;;;;6.03;5.50;;;4.30;25.90;;;;;;10330702;28;20234;-76
2022/03/07 00:38:09;;;;;;;6.73;6.13;;;4.30;26.00;;;;;;10315709;28;20736;-76
2022/03/07 00:43:12;;;;;;;6.33;5.60;;;4.20;25.90;;;;;;10305120;28;20719;-75
2022/03/07 00:48:17;;;;;;;6.37;5.77;;;4.20;26.00;;;;;;10329826;28;20262;-76
2022/03/07 00:53:23;;;;;;;5.50;5.10;;;4.20;25.90;;;;;;10352806;28;20227;-76
2022/03/07 00:58:26;;;;;;;5.83;5.33;;;4.20;25.80;;;;;;10352448;28;20237;-76
2022/03/07 01:03:30;;;;;;;5.60;5.10;;;4.20;25.60;;;;;;10356485;28;20226;-76
2022/03/07 01:08:34;;;;;;;5.50;5.10;;;4.30;25.70;;;;;;10351172;28;20815;-76
2022/03/07 01:13:37;;;;;;;5.20;4.80;;;4.20;25.50;;;;;;10360161;28;20238;-76
2022/03/07 01:18:43;;;;;;;5.10;4.70;;;4.10;25.40;;;;;;10354359;28;20239;-76
2022/03/07 01:23:47;;;;;;;5.33;4.83;;;4.10;25.40;;;;;;10349866;28;20226;-76
2022/03/07 01:28:50;;;;;;;5.40;4.93;;;4.10;25.30;;;;;;10352722;28;20483;-76
2022/03/07 01:33:55;;;;;;;5.20;4.70;;;4.00;25.30;;;;;;10352023;28;20726;-75
2022/03/07 01:38:58;;;;;;;5.17;4.67;;;4.00;25.30;;;;;;10353066;28;20254;-76
2022/03/07 01:44:01;;;;;;;4.80;4.30;;;4.00;25.30;;;;;;10345095;28;20229;-76
2022/03/07 01:49:06;;;;;;;4.90;4.50;;;4.00;25.30;;;;;;10346418;28;20227;-76
2022/03/07 01:54:10;;;;;;;4.70;4.30;;;4.00;25.30;;;;;;10342456;28;20265;-76
2022/03/07 01:59:14;;;;;;;4.80;4.20;;;3.90;25.20;;;;;;10351292;28;20230;-76
2022/03/07 02:04:19;;;;;;;5.00;4.60;;;3.90;25.20;;;;;;10347450;28;20695;-76
2022/03/07 02:09:22;;;;;;;4.80;4.40;;;3.90;25.20;;;;;;10350409;28;20277;-76
2022/03/07 02:14:25;;;;;;;4.37;3.97;;;4.00;25.30;;;;;;10352578;28;20241;-76
2022/03/07 02:19:30;;;;;;;4.27;3.90;;;3.90;25.20;;;;;;10351538;28;20229;-75
2022/03/07 02:24:34;;;;;;;4.70;4.30;;;3.90;25.20;;;;;;10351821;28;20234;-75
2022/03/07 02:29:38;;;;;;;4.00;3.70;;;3.80;25.20;;;;;;10352019;28;20238;-75
2022/03/07 02:34:41;;;;;;;4.13;3.83;;;3.80;25.10;;;;;;10355734;28;20241;-76
2022/03/07 02:39:47;;;;;;;4.10;3.70;;;3.80;25.10;;;;;;10351872;28;20238;-76
2022/03/07 02:45:10;;;;;;;4.47;4.07;;;3.80;25.20;;;;;;10347512;28;20226;-76
2022/03/07 02:50:13;;;;;;;4.30;3.90;;;3.70;25.10;;;;;;10358687;28;20223;-76
2022/03/07 02:55:21;;;;;;;4.60;4.20;;;3.70;25.10;;;;;;10343947;28;20707;-76
2022/03/07 03:00:25;;;;;;;4.07;3.77;;;3.70;25.10;;;;;;10352314;28;20237;-75
2022/03/07 03:05:28;;;;;;;4.60;4.30;;;3.70;25.10;;;;;;10343499;28;20257;-75
2022/03/07 03:10:32;;;;;;;4.17;3.87;;;3.70;25.10;;;;;;10347665;28;20227;-76
2022/03/07 03:15:36;;;;;;;4.30;3.93;;;3.70;25.10;;;;;;10353629;28;20241;-76
2022/03/07 03:20:39;;;;;;;4.10;3.80;;;3.70;25.10;;;;;;10346695;28;20600;-75
2022/03/07 03:25:44;;;;;;;4.17;3.83;;;3.70;25.10;;;;;;10342466;28;20260;-76
2022/03/07 03:30:47;;;;;;;4.40;4.00;;;3.70;25.10;;;;;;10352341;28;20236;-76
2022/03/07 03:35:50;;;;;;;4.33;3.93;;;3.80;25.20;;;;;;10347735;28;20749;-76
2022/03/07 03:40:55;;;;;;;3.80;3.50;;;3.70;25.10;;;;;;10351431;28;20256;-75
2022/03/07 03:45:58;;;;;;;4.50;4.10;;;3.70;25.10;;;;;;10351044;28;20238;-76
2022/03/07 03:51:01;;;;;;;4.40;4.10;;;3.70;25.10;;;;;;10353706;28;20224;-76
2022/03/07 03:56:06;;;;;;;4.07;3.67;;;3.70;25.10;;;;;;10341217;28;20258;-76
2022/03/07 04:01:09;;;;;;;5.03;3.90;;;3.60;25.00;;;;;;10354709;28;20231;-75
2022/03/07 04:06:13;;;;;;;3.80;3.50;;;3.60;25.00;;;;;;10358007;28;20242;-76
2022/03/07 04:11:17;;;;;;;4.00;3.70;;;3.50;25.10;;;;;;10361344;28;20226;-75
2022/03/07 04:16:21;;;;;;;4.47;4.07;;;3.50;25.30;;;;;;10356661;28;20233;-75
2022/03/07 04:21:26;;;;;;;4.30;4.00;;;3.50;25.30;;;;;;10350696;28;20276;-75
2022/03/07 04:26:31;;;;;;;4.43;4.03;;;3.60;25.40;;;;;;10356931;28;20813;-75
2022/03/07 04:31:34;;;;;;;4.93;3.90;;;3.50;25.40;;;;;;10355125;28;20229;-76
2022/03/07 04:36:38;;;;;;;4.40;4.00;;;3.50;25.40;;;;;;10351441;28;20632;-75
2022/03/07 04:41:44;;;;;;;4.80;4.40;;;3.50;25.50;;;;;;10356678;28;20245;-76
2022/03/07 04:46:47;;;;;;;4.27;3.97;;;3.50;25.50;;;;;;10359948;28;20726;-75
2022/03/07 04:51:50;;;;;;;4.83;4.33;;;3.50;25.50;;;;;;10352071;28;20293;-76
2022/03/07 04:56:55;;;;;;;4.70;4.30;;;3.50;25.40;;;;;;10353271;28;20317;-76
2022/03/07 05:01:58;;;;;;;5.00;4.27;;;3.50;25.50;;;;;;10358364;28;20233;-75
2022/03/07 05:07:02;;;;;;;4.73;4.23;;;3.50;25.40;;;;;;10358118;28;20246;-75
2022/03/07 05:12:08;;;;;;;5.10;4.63;;;3.50;25.50;;;;;;10337560;28;20227;-76
2022/03/07 05:17:11;;;;;;;4.80;4.37;;;3.40;25.40;;;;;;10317544;28;20231;-76
2022/03/07 05:22:14;;;;;;;5.17;4.67;;;3.40;25.40;;;;;;10315751;28;20235;-76
2022/03/07 05:27:19;;;;;;;5.10;4.67;;;3.40;25.50;;;;;;10314546;28;20249;-76
2022/03/07 05:32:22;;;;;;;4.70;4.27;;;3.40;25.60;;;;;;10315267;28;20231;-77
2022/03/07 05:37:25;;;;;;;5.23;4.73;;;3.40;26.20;;;;;;10312073;28;20714;-75
2022/03/07 05:42:30;;;;;;;5.37;4.97;;;3.40;25.70;;;;;;10298833;28;20263;-76
2022/03/07 05:47:33;;;;;;;5.07;4.63;;;3.30;25.70;;;;;;10340940;28;20262;-76
2022/03/07 05:52:37;;;;;;;4.93;4.53;;;3.30;25.70;;;;;;10349321;28;20234;-76
2022/03/07 05:57:41;;;;;;;6.40;5.10;;;3.30;25.70;;;;;;10350765;28;20235;-76
2022/03/07 06:02:44;;;;;;;5.17;4.77;;;3.20;25.80;;;;;;10348067;28;20256;-76
2022/03/07 06:07:48;;;;;;;5.43;4.93;;;3.30;25.90;;;;;;10350665;28;20698;-75
2022/03/07 06:12:53;;;;;;;5.90;5.30;;;3.20;26.50;;;;;;10357258;28;20776;-77
2022/03/07 06:17:58;;;;;;;6.40;5.80;;;3.30;26.20;;;;;;10345972;28;20670;-77
2022/03/07 06:23:01;;;;;;;7.17;6.43;;;3.30;26.10;;;;;;10347767;28;20229;-77
2022/03/07 06:28:06;;;;;;;6.60;6.00;;;3.40;26.10;;;;;;10339418;28;20238;-76
2022/03/07 06:33:09;;;;;;;6.33;5.70;;;3.30;26.00;;;;;;10351985;28;20782;-76
2022/03/07 06:38:12;;;;;;;7.10;6.40;;;3.30;26.00;;;;;;10347463;28;20605;-76
2022/03/07 06:43:16;;;;;;;7.17;6.50;;;3.30;26.00;;;;;;10348359;28;20238;-76
2022/03/07 06:48:20;;;;;;;7.23;6.60;;;3.40;26.20;;;;;;10348105;28;20335;-76
2022/03/07 06:53:23;;;;;;;7.60;6.90;;;3.20;26.10;;;;;;10347401;28;20229;-76
2022/03/07 06:58:28;;;;;;;8.30;7.30;;;3.30;26.20;;;;;;10342116;28;20226;-76
2022/03/07 07:03:31;;;;;;;9.07;7.90;;;3.30;26.20;;;;;;10344532;28;20746;-76
2022/03/07 07:08:34;;;;;;;10.27;9.23;;;3.40;26.20;;;;;;10345430;28;20233;-76
2022/03/07 07:13:38;;;;;;;9.73;8.83;;;3.30;26.10;;;;;;10347059;28;20223;-76
2022/03/07 07:18:42;;;;;;;9.90;9.00;;;3.30;26.10;;;;;;10342619;28;20329;-76
2022/03/07 07:23:45;;;;;;;10.70;9.60;;;3.30;26.10;;;;;;10344117;28;20239;-76
2022/03/07 07:28:49;;;;;;;10.63;9.60;;;3.30;26.20;;;;;;10347346;28;20233;-76
2022/03/07 07:33:53;;;;;;;11.90;10.80;;;3.30;26.20;;;;;;10350151;28;20309;-76
2022/03/07 07:38:56;;;;;;;11.20;10.20;;;3.40;26.30;;;;;;10352724;28;20302;-76
2022/03/07 07:44:01;;;;;;;12.27;11.07;;;3.40;26.20;;;;;;10354444;28;20258;-76
2022/03/07 07:49:05;;;;;;;13.17;11.97;;;3.50;26.40;;;;;;10326459;28;20323;-76
2022/03/07 07:54:09;;;;;;;12.40;11.20;;;3.40;26.10;;;;;;10351032;28;20227;-77
2022/03/07 07:59:13;;;;;;;12.93;11.63;;;3.50;26.20;;;;;;10351896;28;20227;-77
2022/03/07 08:04:16;;;;;;;13.47;12.17;;;3.50;26.30;;;;;;10350550;28;20223;-76
2022/03/07 08:09:20;;;;;;;14.40;12.20;;;3.60;26.20;;;;;;10349827;28;20230;-77
2022/03/07 08:14:24;;;;;;;14.20;12.80;;;3.50;26.10;;;;;;10355367;28;20226;-77
2022/03/07 08:19:27;;;;;;;14.17;12.80;;;3.60;26.10;;;;;;10351021;28;20594;-77
2022/03/07 08:24:30;;;;;;;13.03;11.83;;;3.70;26.00;;;;;;10318066;28;20230;-76
2022/03/07 08:29:35;;;;;;;13.50;12.20;;;3.70;26.00;;;;;;10309734;28;20257;-76
2022/03/07 08:34:38;;;;;;;14.43;13.13;;;3.70;25.90;;;;;;10307387;28;20322;-76
2022/03/07 08:39:42;;;;;;;14.07;12.57;;;3.80;25.80;;;;;;10311398;28;20239;-76
2022/03/07 08:44:46;;;;;;;15.23;13.27;;;3.80;25.80;;;;;;10300801;28;20298;-76
2022/03/07 08:49:50;;;;;;;14.57;13.17;;;3.80;25.70;;;;;;10309756;28;20232;-75
2022/03/07 08:54:54;;;;;;;14.93;13.50;;;3.90;25.70;;;;;;10322881;28;20912;-76
2022/03/07 09:00:00;;;;;;;15.63;14.03;;;3.80;25.60;;;;;;10358027;28;20306;-75
2022/03/07 09:05:04;;;;;;;14.23;12.90;;;3.90;25.60;;;;;;10360749;28;20222;-76
2022/03/07 09:10:08;;;;;;;14.00;12.70;;;3.90;25.50;;;;;;10357623;28;20953;-75
2022/03/07 09:15:14;;;;;;;14.83;13.40;;;3.90;25.40;;;;;;10352958;28;20605;-75
2022/03/07 09:20:19;;;;;;;15.17;13.67;;;3.90;25.50;;;;;;10364761;28;20222;-76
2022/03/07 09:25:23;;;;;;;15.10;13.80;;;3.90;25.50;;;;;;10370262;28;20687;-76
2022/03/07 09:30:28;;;;;;;14.50;13.20;;;4.00;25.40;;;;;;10359882;28;20232;-74
2022/03/07 09:35:31;;;;;;;14.97;13.47;;;4.10;25.40;;;;;;10341160;28;20239;-75
2022/03/07 09:40:35;;;;;;;13.40;12.10;;;4.10;25.30;;;;;;10316099;28;20313;-75
2022/03/07 09:45:39;;;;;;;13.13;11.93;;;4.20;25.40;;;;;;10317113;28;20245;-75
2022/03/07 09:50:45;;;;;;;12.97;11.77;;;4.20;25.40;;;;;;10324243;28;20719;-76
2022/03/07 09:55:49;;;;;;;13.43;12.20;;;4.30;25.50;;;;;;10319861;28;20322;-76
2022/03/07 10:01:05;;;;;;;13.37;12.07;;;4.30;25.40;;;;;;10312046;28;20731;-76
2022/03/07 10:06:15;;;;;;;12.73;11.53;;;4.40;25.50;;;;;;10359828;28;20229;-76
2022/03/07 10:11:19;;;;;;;12.93;11.73;;;4.50;25.20;;;;;;10314316;28;20691;-76
2022/03/07 10:16:24;;;;;;;13.10;11.87;;;4.60;25.10;;;;;;10330866;28;20244;-76
2022/03/07 10:21:28;;;;;;;14.00;12.60;;;4.70;25.10;;;;;;10358243;28;20233;-76
2022/03/07 10:26:35;;;;;;;13.60;12.33;;;4.80;24.90;;;;;;10364090;28;20231;-76
2022/03/07 10:31:46;;;;;;;12.30;10.93;;;4.90;24.80;;;;;;10357805;28;20314;-74
2022/03/07 10:36:52;;;;;;;14.07;12.67;;;4.90;24.70;;;;;;10324784;28;20297;-76
2022/03/07 10:41:55;;;;;;;13.13;11.93;;;5.00;24.70;;;;;;10301221;28;20257;-75
2022/03/07 10:47:14;;;;;;;13.33;12.13;;;5.00;24.50;;;;;;10314519;28;20792;-75
2022/03/07 10:52:19;;;;;;;13.17;11.87;;;5.10;24.20;;;;;;10316472;28;20259;-75
2022/03/07 10:57:22;;;;;;;13.90;12.60;;;5.10;24.70;;;;;;10327404;28;20699;-75
2022/03/07 11:02:27;;;;;;;12.87;11.67;;;5.20;24.50;;;;;;10345680;28;20227;-75
2022/03/07 11:07:31;;;;;;;13.67;12.37;;;5.20;24.40;;;;;;10318634;28;20719;-75
2022/03/07 11:12:35;;;;;;;12.20;11.10;;;5.30;24.50;;;;;;10304482;28;20236;-74
2022/03/07 11:17:42;;;;;;;13.47;12.07;;;5.40;24.60;;;;;;10292088;28;20232;-74
2022/03/07 11:22:46;;;;;;;13.53;12.33;;;5.60;24.10;;;;;;10304583;28;20309;-75
2022/03/07 11:27:49;;;;;;;13.20;12.00;;;5.70;24.20;;;;;;10316742;28;20657;-75
2022/03/07 11:32:54;;;;;;;13.33;12.03;;;5.90;24.10;;;;;;10309755;28;20233;-75
2022/03/07 11:37:57;;;;;;;14.13;12.83;;;6.00;24.20;;;;;;10323015;28;20230;-75
2022/03/07 11:43:07;;;;;;;14.23;12.97;;;6.10;23.60;;;;;;10339548;28;20233;-75
2022/03/07 11:48:15;;;;;;;14.13;12.80;;;6.10;23.00;;;;;;10351952;28;20218;-75
2022/03/07 11:53:19;;;;;;;13.13;12.03;;;6.00;23.10;;;;;;10337962;28;20702;-77
2022/03/07 11:58:30;;;;;;;12.37;11.23;;;5.80;23.70;;;;;;10345333;28;20269;-76
2022/03/07 12:03:35;;;;;;;13.70;12.50;;;5.90;23.40;;;;;;10337984;28;20238;-76
2022/03/07 12:08:44;;;;;;;12.77;11.67;;;5.90;23.70;;;;;;10348557;28;20234;-78
2022/03/07 12:13:49;;;;;;;13.93;12.70;;;6.00;23.50;;;;;;10341188;28;20232;-78
2022/03/07 12:18:56;;;;;;;13.93;12.73;;;6.10;23.30;;;;;;10340406;28;20227;-76
2022/03/07 12:24:00;;;;;;;13.70;12.50;;;6.10;23.20;;;;;;10298345;28;20231;-75
2022/03/07 12:29:03;;;;;;;13.83;12.53;;;6.10;23.40;;;;;;10305107;28;20234;-78
2022/03/07 12:34:08;;;;;;;12.57;11.47;;;6.30;23.50;;;;;;10322942;28;20893;-78
2022/03/07 12:39:11;;;;;;;13.23;12.03;;;6.40;23.50;;;;;;10335808;28;20249;-78
2022/03/07 12:44:14;;;;;;;15.23;13.80;;;6.60;23.10;;;;;;10333397;28;20248;-76
2022/03/07 12:49:19;;;;;;;14.57;13.27;;;6.60;22.60;;;;;;10338661;28;20711;-76
2022/03/07 12:54:29;;;;;;;14.57;13.17;;;6.60;22.70;;;;;;10330485;28;20238;-78
2022/03/07 12:59:34;;;;;;;14.17;12.87;;;6.40;22.60;;;;;;10292943;28;20639;-74
2022/03/07 13:04:39;;;;;;;13.43;12.23;;;6.40;22.60;;;;;;10295474;28;20235;-75
2022/03/07 13:09:42;;;;;;;12.90;11.77;;;6.40;22.90;;;;;;10304436;28;20226;-78
2022/03/07 13:14:45;;;;;;;14.23;12.60;;;6.50;23.10;;;;;;10289238;28;20222;-76
2022/03/07 13:19:51;;;;;;;14.27;12.97;;;6.50;23.10;;;;;;10292245;28;20237;-76
2022/03/07 13:24:57;;;;;;;14.50;13.13;;;6.60;22.70;;;;;;10306304;28;20310;-75
2022/03/07 13:30:06;;;;;;;14.77;13.47;;;6.60;22.80;;;;;;10303865;28;20786;-79
2022/03/07 13:35:23;;;;;;;13.73;12.53;;;6.70;22.50;;;;;;10299208;28;20227;-78
2022/03/07 13:40:32;;;;;;;14.87;13.57;;;6.80;22.20;;;;;;10301521;28;20231;-77
2022/03/07 13:45:37;;;;;;;15.00;13.70;;;6.80;22.50;;;;;;10296921;28;20241;-78
2022/03/07 13:50:48;;;;;;;13.07;11.97;;;6.90;22.30;;;;;;10295527;28;20233;-77
2022/03/07 13:55:55;;;;;;;15.50;14.20;;;6.80;22.20;;;;;;10296883;28;20656;-75
2022/03/07 14:01:05;;;;;;;15.30;13.90;;;6.90;22.60;;;;;;10293406;28;20243;-75
2022/03/07 14:06:31;;;;;;;15.30;13.90;;;6.90;22.30;;;;;;10299564;28;20226;-76
2022/03/07 14:11:34;;;;;;;15.37;13.87;;;7.00;22.40;;;;;;10306146;28;20683;-76
2022/03/07 14:16:37;;;;;;;15.57;14.17;;;7.00;22.60;;;;;;10298474;28;20234;-75
2022/03/07 14:21:42;;;;;;;15.53;14.13;;;7.00;22.50;;;;;;10295123;28;20251;-76
2022/03/07 14:26:49;;;;;;;14.63;13.23;;;7.10;22.20;;;;;;10300763;28;20738;-77
2022/03/07 14:31:53;;;;;;;14.70;13.40;;;7.10;21.90;;;;;;10303824;28;20975;-77
2022/03/07 14:36:57;;;;;;;15.17;13.87;;;7.10;22.20;;;;;;10303912;28;20319;-77
2022/03/07 14:42:01;;;;;;;14.87;13.47;;;7.10;21.90;;;;;;10306675;28;20215;-77
2022/03/07 14:47:08;;;;;;;13.37;12.23;;;7.10;21.90;;;;;;10298674;28;20230;-77
2022/03/07 14:52:14;;;;;;;14.17;12.87;;;7.10;22.00;;;;;;10307858;28;20229;-76
2022/03/07 14:57:17;;;;;;;12.73;11.67;;;7.10;21.70;;;;;;10302266;28;20676;-76
2022/03/07 15:02:20;;;;;;;13.67;12.47;;;7.00;21.90;;;;;;10297655;28;20234;-76
2022/03/07 15:07:25;;;;;;;11.87;10.77;;;7.00;22.50;;;;;;10306079;28;20237;-74
2022/03/07 15:12:28;;;;;;;13.67;12.37;;;7.00;23.70;;;;;;10301006;28;20227;-75
2022/03/07 15:17:32;;;;;;;12.97;11.77;;;7.10;22.50;;;;;;10304431;28;20243;-75
2022/03/07 15:22:37;;;;;;;13.90;12.60;;;7.20;22.40;;;;;;10302729;28;20230;-75
2022/03/07 15:27:40;;;;;;;13.47;12.23;;;7.20;22.10;;;;;;10301086;28;20235;-74
2022/03/07 15:32:45;;;;;;;13.57;12.37;;;7.20;22.00;;;;;;10302067;28;20238;-75
2022/03/07 15:37:49;;;;;;;12.53;11.43;;;7.20;22.10;;;;;;10307896;28;20234;-76
2022/03/07 15:42:54;;;;;;;10.57;9.67;;;7.20;21.80;;;;;;10302085;28;20227;-75
2022/03/07 15:47:57;;;;;;;11.20;10.23;;;7.20;23.80;;;;;;10295828;28;20231;-76
2022/03/07 15:53:02;;;;;;;11.60;10.57;;;7.30;24.10;;;;;;10308968;28;20235;-75
2022/03/07 15:58:05;;;;;;;11.30;10.40;;;7.50;23.30;;;;;;10311497;28;20234;-74
2022/03/07 16:03:08;;;;;;;10.80;9.80;;;7.60;23.00;;;;;;10303968;28;20222;-74
2022/03/07 16:08:13;;;;;;;9.90;9.00;;;7.70;22.60;;;;;;10318700;28;20223;-74
2022/03/07 16:13:19;;;;;;;9.37;8.57;;;7.80;22.80;;;;;;10309230;28;20594;-74
2022/03/07 16:18:23;;;;;;;8.47;7.77;;;7.90;22.40;;;;;;10308895;28;20231;-75
2022/03/07 16:23:28;;;;;;;9.27;8.23;;;7.90;22.20;;;;;;10313900;28;20947;-74
2022/03/07 16:28:31;;;;;;;8.07;7.33;;;7.80;21.70;;;;;;10300325;28;20719;-79
2022/03/07 16:33:36;;;;;;;7.80;7.10;;;7.70;21.80;;;;;;10301535;28;20596;-76
2022/03/07 16:38:41;;;;;;;7.00;6.30;;;7.60;21.70;;;;;;10305380;28;20242;-77
2022/03/07 16:43:44;;;;;;;8.20;7.47;;;7.50;21.60;;;;;;10306881;28;20227;-76
2022/03/07 16:48:47;;;;;;;8.50;6.80;;;7.40;21.50;;;;;;10307826;28;20327;-77
2022/03/07 16:53:52;;;;;;;8.07;7.37;;;7.30;21.70;;;;;;10304424;28;20715;-75
2022/03/07 16:58:55;;;;;;;7.13;6.53;;;7.30;21.60;;;;;;10305918;28;20242;-75
2022/03/07 17:03:58;;;;;;;7.30;6.70;;;7.20;21.70;;;;;;10304442;28;20219;-77
2022/03/07 17:09:03;;;;;;;7.20;6.57;;;7.20;21.80;;;;;;10308767;28;20326;-75
2022/03/07 17:14:06;;;;;;;9.63;8.73;;;7.10;21.70;;;;;;10300020;28;20711;-74
2022/03/07 17:19:10;;;;;;;7.03;6.43;;;7.10;21.90;;;;;;10302435;28;20234;-72
2022/03/07 17:24:14;;;;;;;7.20;6.50;;;7.00;21.90;;;;;;10304305;28;20696;-72
2022/03/07 17:29:18;;;;;;;6.93;6.30;;;7.00;21.90;;;;;;10304379;28;20326;-71
2022/03/07 17:34:21;;;;;;;7.13;6.53;;;6.90;21.80;;;;;;10304367;28;20223;-71
2022/03/07 17:39:26;;;;;;;7.80;7.00;;;6.80;21.80;;;;;;10310757;28;20309;-71
2022/03/07 17:44:29;;;;;;;7.87;6.53;;;6.70;21.70;;;;;;10350573;28;20601;-71
2022/03/07 17:49:33;;;;;;;7.00;6.40;;;6.60;21.80;;;;;;10340534;28;20265;-71
2022/03/07 17:54:38;;;;;;;6.97;6.23;;;6.50;21.80;;;;;;10359705;28;20246;-71
2022/03/07 17:59:41;;;;;;;5.57;4.00;;;6.40;21.90;;;;;;10349898;28;20230;-74
2022/03/07 18:04:44;;;;;;;10.03;7.87;;;6.30;21.90;;;;;;10352868;28;20317;-71
2022/03/07 18:09:49;;;;;;;9.93;9.00;;;6.20;22.10;;;;;;10346828;28;20245;-71
2022/03/07 18:14:52;;;;;;;11.47;10.30;;;6.20;22.00;;;;;;10349636;28;20261;-71
2022/03/07 18:19:55;;;;;;;14.93;13.47;;;6.10;22.00;;;;;;10364797;28;20248;-71
2022/03/07 18:25:00;;;;;;;14.80;13.40;;;6.00;22.00;;;;;;10339073;28;20226;-70
2022/03/07 18:30:04;;;;;;;12.27;11.17;;;5.90;21.90;;;;;;10364096;28;20237;-71
2022/03/07 18:35:10;;;;;;;10.77;9.77;;;5.80;22.10;;;;;;10353101;28;20222;-75
2022/03/07 18:40:15;;;;;;;9.93;8.87;;;5.70;22.20;;;;;;10350308;28;20257;-75
2022/03/07 18:45:19;;;;;;;10.83;8.83;;;5.60;22.30;;;;;;10340600;28;20231;-76
2022/03/07 18:50:22;;;;;;;12.67;10.37;;;5.60;22.40;;;;;;10336677;28;20317;-73
2022/03/07 18:55:30;;;;;;;15.83;14.13;;;5.50;22.30;;;;;;10332633;28;20230;-73
2022/03/07 19:00:33;;;;;;;16.63;14.83;;;5.40;22.20;;;;;;10329562;28;20218;-73
2022/03/07 19:05:41;;;;;;;17.57;15.03;;;5.30;22.20;;;;;;10339182;28;20281;-72
2022/03/07 19:10:46;;;;;;;18.53;14.27;;;5.20;22.30;;;;;;10350101;28;20716;-72
2022/03/07 19:15:50;;;;;;;15.70;13.07;;;5.10;22.50;;;;;;10342436;28;20235;-72
2022/03/07 19:20:53;;;;;;;14.57;12.93;;;5.00;22.50;;;;;;10349779;28;20230;-72
2022/03/07 19:26:00;;;;;;;14.80;13.03;;;5.00;22.60;;;;;;10350244;28;20313;-72
2022/03/07 19:31:04;;;;;;;22.13;18.83;;;4.90;22.60;;;;;;10359057;28;20227;-72
2022/03/07 19:36:08;;;;;;;19.33;17.27;;;4.80;22.50;;;;;;10312772;28;20227;-72
2022/03/07 19:41:13;;;;;;;15.47;13.87;;;4.70;22.70;;;;;;10316230;28;20687;-73
2022/03/07 19:46:18;;;;;;;16.00;14.30;;;4.60;22.80;;;;;;10317030;28;20322;-78
2022/03/07 19:51:22;;;;;;;13.97;12.27;;;4.50;22.90;;;;;;10302199;28;20410;-77
2022/03/07 19:56:28;;;;;;;12.73;11.43;;;4.50;22.90;;;;;;10302898;28;20715;-77
2022/03/07 20:01:31;;;;;;;14.87;13.37;;;4.40;22.90;;;;;;10304859;28;20255;-77
2022/03/07 20:06:35;;;;;;;14.90;13.10;;;4.50;22.90;;;;;;10287409;28;20234;-76
2022/03/07 20:11:40;;;;;;;13.97;12.57;;;4.40;22.80;;;;;;10290630;28;20219;-77
2022/03/07 20:16:43;;;;;;;14.23;12.73;;;4.30;22.80;;;;;;10291796;28;20908;-75
2022/03/07 20:21:46;;;;;;;13.43;12.07;;;4.20;22.90;;;;;;10289657;28;20851;-77
2022/03/07 20:26:51;;;;;;;15.10;11.93;;;4.00;22.90;;;;;;10287011;28;20236;-74
2022/03/07 20:31:55;;;;;;;15.80;12.63;;;4.00;23.10;;;;;;10326673;28;20989;-75
2022/03/07 20:37:01;;;;;;;17.43;14.20;;;4.00;23.00;;;;;;10324015;28;20234;-76
2022/03/07 20:42:06;;;;;;;14.33;12.80;;;4.00;23.00;;;;;;10323773;28;20230;-76
2022/03/07 20:47:10;;;;;;;14.23;12.73;;;3.90;23.00;;;;;;10328794;28;20670;-76
2022/03/07 20:52:13;;;;;;;14.23;12.83;;;3.70;22.90;;;;;;10333393;28;20837;-76
2022/03/07 20:57:18;;;;;;;12.50;11.20;;;3.60;23.00;;;;;;10349827;28;20262;-75
2022/03/07 21:02:21;;;;;;;14.20;12.70;;;3.60;23.10;;;;;;10344181;28;20234;-75
2022/03/07 21:07:25;;;;;;;15.07;11.90;;;3.50;23.20;;;;;;10349170;28;20679;-75
2022/03/07 21:12:29;;;;;;;12.33;11.03;;;3.50;23.40;;;;;;10349001;28;20230;-75
2022/03/07 21:17:33;;;;;;;12.40;11.10;;;3.40;23.40;;;;;;10351479;28;20234;-74
2022/03/07 21:22:38;;;;;;;11.57;9.93;;;3.40;23.50;;;;;;10347066;28;20241;-75
2022/03/07 21:27:42;;;;;;;10.97;9.80;;;3.40;23.50;;;;;;10357328;28;20234;-75
2022/03/07 21:32:47;;;;;;;11.03;9.93;;;3.30;23.50;;;;;;10353262;28;20219;-75
2022/03/07 21:37:51;;;;;;;13.20;11.80;;;3.40;23.70;;;;;;10349411;28;20230;-75
2022/03/07 21:42:55;;;;;;;13.77;11.97;;;3.30;23.80;;;;;;10350972;28;20600;-75
2022/03/07 21:47:59;;;;;;;13.87;12.37;;;3.20;23.70;;;;;;10351756;28;20237;-76
2022/03/07 21:53:02;;;;;;;13.47;12.07;;;3.20;23.60;;;;;;10349994;28;20246;-75
2022/03/07 21:58:07;;;;;;;12.27;10.97;;;3.10;23.50;;;;;;10346146;28;20319;-75
2022/03/07 22:03:29;;;;;;;14.27;12.43;;;3.10;23.70;;;;;;10350662;28;20543;-75
2022/03/07 22:08:32;;;;;;;14.07;12.67;;;3.00;23.70;;;;;;10347020;28;20277;-75
2022/03/07 22:13:37;;;;;;;19.67;15.80;;;3.00;23.70;;;;;;10347345;28;20226;-75
2022/03/07 22:18:41;;;;;;;20.57;17.10;;;2.90;23.70;;;;;;10351610;28;20333;-75
2022/03/07 22:23:44;;;;;;;31.87;23.97;;;2.90;23.80;;;;;;10350809;28;20284;-75
2022/03/07 22:28:49;;;;;;;33.23;24.37;;;3.00;23.90;;;;;;10351539;28;20249;-75
2022/03/07 22:33:52;;;;;;;32.23;24.53;;;2.80;23.80;;;;;;10351689;28;20241;-75
2022/03/07 22:38:55;;;;;;;25.27;18.47;;;2.70;23.80;;;;;;10352899;28;20570;-75
2022/03/07 22:44:00;;;;;;;31.30;22.57;;;2.80;23.80;;;;;;10349168;28;20744;-76
2022/03/07 22:49:04;;;;;;;27.77;21.07;;;2.60;23.80;;;;;;10350570;28;20587;-75
2022/03/07 22:54:07;;;;;;;25.30;19.37;;;2.60;23.70;;;;;;10353071;28;20226;-75
2022/03/07 22:59:12;;;;;;;25.13;19.00;;;2.40;23.70;;;;;;10354576;28;20238;-75
2022/03/07 23:04:15;;;;;;;20.83;17.03;;;2.30;23.80;;;;;;10352003;28;20234;-75
2022/03/07 23:09:19;;;;;;;20.43;16.43;;;2.30;23.90;;;;;;10353442;28;20306;-75
2022/03/07 23:14:23;;;;;;;18.77;15.53;;;2.20;24.00;;;;;;10350472;28;20235;-75
2022/03/07 23:19:26;;;;;;;15.33;13.30;;;2.30;24.20;;;;;;10362981;28;20233;-75
2022/03/07 23:24:30;;;;;;;12.13;9.97;;;2.10;24.10;;;;;;10362134;28;20225;-75
2022/03/07 23:29:34;;;;;;;12.43;10.47;;;2.00;24.00;;;;;;10358101;28;20237;-77
2022/03/07 23:34:37;;;;;;;13.17;11.73;;;1.90;23.90;;;;;;10359242;28;20232;-75
2022/03/07 23:39:41;;;;;;;11.20;10.10;;;2.00;24.00;;;;;;10359172;28;20234;-75
2022/03/07 23:44:45;;;;;;;14.53;12.27;;;1.80;23.90;;;;;;10360902;28;20234;-76
2022/03/07 23:49:49;;;;;;;15.70;11.57;;;1.70;23.80;;;;;;10353589;28;20239;-75
2022/03/07 23:54:53;;;;;;;13.70;11.10;;;1.70;23.80;;;;;;10364961;28;20764;-75
2022/03/07 23:59:58;;;;;;;11.60;9.87;;;1.60;23.80;;;;;;10351318;28;20234;-75
